sensor_id;sensor_type;location;lat;lon;timestamp;P1;durP1;ratioP1;P2;durP2;ratioP2
9643;SDS011;4860;50.900;4.720;2024-03-29T00:00:52;0.20;;;0.20;;
9643;SDS011;4860;50.900;4.720;2024-03-29T00:03:18;0.30;;;0.30;;
9643;SDS011;4860;50.900;4.720;2024-03-29T00:05:44;0.30;;;0.30;;
9643;SDS011;4860;50.900;4.720;2024-03-29T00:08:10;0.30;;;0.30;;
9643;SDS011;4860;50.900;4.720;2024-03-29T00:10:36;0.30;;;0.30;;
9643;SDS011;4860;50.900;4.720;2024-03-29T00:13:03;0.30;;;0.30;;
9643;SDS011;4860;50.900;4.720;2024-03-29T00:15:33;0.30;;;0.30;;
9643;SDS011;4860;50.900;4.720;2024-03-29T00:17:59;0.20;;;0.20;;
9643;SDS011;4860;50.900;4.720;2024-03-29T00:20:25;0.30;;;0.30;;
9643;SDS011;4860;50.900;4.720;2024-03-29T00:22:54;0.30;;;0.30;;
9643;SDS011;4860;50.900;4.720;2024-03-29T00:25:20;0.30;;;0.30;;
9643;SDS011;4860;50.900;4.720;2024-03-29T00:27:46;0.20;;;0.20;;
9643;SDS011;4860;50.900;4.720;2024-03-29T00:30:13;0.30;;;0.30;;
9643;SDS011;4860;50.900;4.720;2024-03-29T00:32:40;0.30;;;0.30;;
9643;SDS011;4860;50.900;4.720;2024-03-29T00:35:06;0.30;;;0.30;;
9643;SDS011;4860;50.900;4.720;2024-03-29T00:37:33;0.20;;;0.20;;
9643;SDS011;4860;50.900;4.720;2024-03-29T00:39:59;0.30;;;0.30;;
9643;SDS011;4860;50.900;4.720;2024-03-29T00:42:25;0.20;;;0.20;;
9643;SDS011;4860;50.900;4.720;2024-03-29T00:44:51;0.20;;;0.20;;
9643;SDS011;4860;50.900;4.720;2024-03-29T00:47:17;0.20;;;0.20;;
9643;SDS011;4860;50.900;4.720;2024-03-29T00:49:43;0.30;;;0.30;;
9643;SDS011;4860;50.900;4.720;2024-03-29T00:52:09;0.30;;;0.30;;
9643;SDS011;4860;50.900;4.720;2024-03-29T00:54:35;0.20;;;0.20;;
9643;SDS011;4860;50.900;4.720;2024-03-29T00:57:02;0.20;;;0.20;;
9643;SDS011;4860;50.900;4.720;2024-03-29T00:59:28;0.20;;;0.20;;
9643;SDS011;4860;50.900;4.720;2024-03-29T01:01:54;0.20;;;0.20;;
9643;SDS011;4860;50.900;4.720;2024-03-29T01:04:20;0.20;;;0.20;;
9643;SDS011;4860;50.900;4.720;2024-03-29T01:06:46;0.20;;;0.20;;
9643;SDS011;4860;50.900;4.720;2024-03-29T01:09:12;0.20;;;0.20;;
9643;SDS011;4860;50.900;4.720;2024-03-29T01:11:39;0.20;;;0.20;;
9643;SDS011;4860;50.900;4.720;2024-03-29T01:14:05;0.20;;;0.20;;
9643;SDS011;4860;50.900;4.720;2024-03-29T01:16:33;0.20;;;0.20;;
9643;SDS011;4860;50.900;4.720;2024-03-29T01:18:59;0.20;;;0.20;;
9643;SDS011;4860;50.900;4.720;2024-03-29T01:21:28;0.20;;;0.20;;
9643;SDS011;4860;50.900;4.720;2024-03-29T01:23:54;0.20;;;0.20;;
9643;SDS011;4860;50.900;4.720;2024-03-29T01:26:20;0.25;;;0.25;;
9643;SDS011;4860;50.900;4.720;2024-03-29T01:28:46;0.20;;;0.20;;
9643;SDS011;4860;50.900;4.720;2024-03-29T01:31:12;0.20;;;0.20;;
9643;SDS011;4860;50.900;4.720;2024-03-29T01:33:38;0.22;;;0.22;;
9643;SDS011;4860;50.900;4.720;2024-03-29T01:36:09;0.25;;;0.25;;
9643;SDS011;4860;50.900;4.720;2024-03-29T01:38:35;0.20;;;0.20;;
9643;SDS011;4860;50.900;4.720;2024-03-29T01:41:01;0.30;;;0.30;;
9643;SDS011;4860;50.900;4.720;2024-03-29T01:43:28;0.20;;;0.20;;
9643;SDS011;4860;50.900;4.720;2024-03-29T01:45:54;0.22;;;0.22;;
9643;SDS011;4860;50.900;4.720;2024-03-29T01:48:24;0.20;;;0.20;;
9643;SDS011;4860;50.900;4.720;2024-03-29T01:50:51;0.20;;;0.20;;
9643;SDS011;4860;50.900;4.720;2024-03-29T01:53:18;0.30;;;0.30;;
9643;SDS011;4860;50.900;4.720;2024-03-29T01:55:45;0.20;;;0.20;;
9643;SDS011;4860;50.900;4.720;2024-03-29T01:58:11;0.20;;;0.20;;
9643;SDS011;4860;50.900;4.720;2024-03-29T02:00:38;0.30;;;0.30;;
9643;SDS011;4860;50.900;4.720;2024-03-29T02:03:05;0.30;;;0.30;;
9643;SDS011;4860;50.900;4.720;2024-03-29T02:05:38;0.20;;;0.20;;
9643;SDS011;4860;50.900;4.720;2024-03-29T02:08:05;0.30;;;0.30;;
9643;SDS011;4860;50.900;4.720;2024-03-29T02:10:32;0.20;;;0.20;;
9643;SDS011;4860;50.900;4.720;2024-03-29T02:13:00;0.30;;;0.30;;
9643;SDS011;4860;50.900;4.720;2024-03-29T02:15:28;0.30;;;0.30;;
9643;SDS011;4860;50.900;4.720;2024-03-29T02:17:54;0.20;;;0.20;;
9643;SDS011;4860;50.900;4.720;2024-03-29T02:20:20;0.30;;;0.30;;
9643;SDS011;4860;50.900;4.720;2024-03-29T02:22:55;0.20;;;0.20;;
9643;SDS011;4860;50.900;4.720;2024-03-29T02:25:23;0.25;;;0.25;;
9643;SDS011;4860;50.900;4.720;2024-03-29T02:27:50;0.30;;;0.30;;
9643;SDS011;4860;50.900;4.720;2024-03-29T02:30:17;0.20;;;0.20;;
9643;SDS011;4860;50.900;4.720;2024-03-29T02:32:43;0.30;;;0.30;;
9643;SDS011;4860;50.900;4.720;2024-03-29T02:35:09;0.30;;;0.30;;
9643;SDS011;4860;50.900;4.720;2024-03-29T02:37:35;0.30;;;0.30;;
9643;SDS011;4860;50.900;4.720;2024-03-29T02:40:02;0.30;;;0.30;;
9643;SDS011;4860;50.900;4.720;2024-03-29T02:42:29;0.22;;;0.22;;
9643;SDS011;4860;50.900;4.720;2024-03-29T02:44:55;0.30;;;0.30;;
9643;SDS011;4860;50.900;4.720;2024-03-29T02:47:21;0.30;;;0.30;;
9643;SDS011;4860;50.900;4.720;2024-03-29T02:49:47;0.30;;;0.30;;
9643;SDS011;4860;50.900;4.720;2024-03-29T02:52:13;0.30;;;0.30;;
9643;SDS011;4860;50.900;4.720;2024-03-29T02:54:41;0.30;;;0.30;;
9643;SDS011;4860;50.900;4.720;2024-03-29T02:57:07;0.30;;;0.30;;
9643;SDS011;4860;50.900;4.720;2024-03-29T02:59:33;0.30;;;0.30;;
9643;SDS011;4860;50.900;4.720;2024-03-29T03:01:59;0.30;;;0.30;;
9643;SDS011;4860;50.900;4.720;2024-03-29T03:04:25;0.30;;;0.30;;
9643;SDS011;4860;50.900;4.720;2024-03-29T03:06:51;0.30;;;0.30;;
9643;SDS011;4860;50.900;4.720;2024-03-29T03:09:17;0.20;;;0.20;;
9643;SDS011;4860;50.900;4.720;2024-03-29T03:12:02;0.40;;;0.40;;
9643;SDS011;4860;50.900;4.720;2024-03-29T03:14:28;0.30;;;0.30;;
9643;SDS011;4860;50.900;4.720;2024-03-29T03:16:54;0.30;;;0.30;;
9643;SDS011;4860;50.900;4.720;2024-03-29T03:19:20;0.30;;;0.30;;
9643;SDS011;4860;50.900;4.720;2024-03-29T03:21:49;0.30;;;0.30;;
9643;SDS011;4860;50.900;4.720;2024-03-29T03:24:16;0.30;;;0.30;;
9643;SDS011;4860;50.900;4.720;2024-03-29T03:26:42;0.30;;;0.30;;
9643;SDS011;4860;50.900;4.720;2024-03-29T03:29:08;0.28;;;0.28;;
9643;SDS011;4860;50.900;4.720;2024-03-29T03:31:35;0.30;;;0.30;;
9643;SDS011;4860;50.900;4.720;2024-03-29T03:34:01;0.20;;;0.20;;
9643;SDS011;4860;50.900;4.720;2024-03-29T03:36:27;0.30;;;0.30;;
9643;SDS011;4860;50.900;4.720;2024-03-29T03:38:53;0.28;;;0.28;;
9643;SDS011;4860;50.900;4.720;2024-03-29T03:41:19;0.20;;;0.20;;
9643;SDS011;4860;50.900;4.720;2024-03-29T03:43:45;0.30;;;0.30;;
9643;SDS011;4860;50.900;4.720;2024-03-29T03:46:11;0.35;;;0.35;;
9643;SDS011;4860;50.900;4.720;2024-03-29T03:48:37;0.30;;;0.30;;
9643;SDS011;4860;50.900;4.720;2024-03-29T03:51:03;0.30;;;0.30;;
9643;SDS011;4860;50.900;4.720;2024-03-29T03:53:30;0.30;;;0.30;;
9643;SDS011;4860;50.900;4.720;2024-03-29T03:55:56;0.30;;;0.30;;
9643;SDS011;4860;50.900;4.720;2024-03-29T03:58:22;0.30;;;0.30;;
9643;SDS011;4860;50.900;4.720;2024-03-29T04:00:48;0.30;;;0.30;;
9643;SDS011;4860;50.900;4.720;2024-03-29T04:03:14;0.30;;;0.30;;
9643;SDS011;4860;50.900;4.720;2024-03-29T04:05:41;0.30;;;0.30;;
9643;SDS011;4860;50.900;4.720;2024-03-29T04:08:07;0.30;;;0.30;;
9643;SDS011;4860;50.900;4.720;2024-03-29T04:10:37;0.30;;;0.30;;
9643;SDS011;4860;50.900;4.720;2024-03-29T04:13:03;0.30;;;0.30;;
9643;SDS011;4860;50.900;4.720;2024-03-29T04:15:29;0.30;;;0.30;;
9643;SDS011;4860;50.900;4.720;2024-03-29T04:17:58;0.20;;;0.20;;
9643;SDS011;4860;50.900;4.720;2024-03-29T04:20:25;0.30;;;0.30;;
9643;SDS011;4860;50.900;4.720;2024-03-29T04:22:51;0.30;;;0.30;;
9643;SDS011;4860;50.900;4.720;2024-03-29T04:25:17;0.20;;;0.20;;
9643;SDS011;4860;50.900;4.720;2024-03-29T04:27:43;0.30;;;0.30;;
9643;SDS011;4860;50.900;4.720;2024-03-29T04:30:09;0.30;;;0.30;;
9643;SDS011;4860;50.900;4.720;2024-03-29T04:32:36;0.30;;;0.30;;
9643;SDS011;4860;50.900;4.720;2024-03-29T04:35:02;0.30;;;0.30;;
9643;SDS011;4860;50.900;4.720;2024-03-29T04:37:29;0.30;;;0.30;;
9643;SDS011;4860;50.900;4.720;2024-03-29T04:39:55;0.30;;;0.30;;
9643;SDS011;4860;50.900;4.720;2024-03-29T04:42:21;0.30;;;0.30;;
9643;SDS011;4860;50.900;4.720;2024-03-29T04:44:47;0.30;;;0.30;;
9643;SDS011;4860;50.900;4.720;2024-03-29T04:47:13;0.30;;;0.30;;
9643;SDS011;4860;50.900;4.720;2024-03-29T04:49:39;0.25;;;0.25;;
9643;SDS011;4860;50.900;4.720;2024-03-29T04:52:05;0.20;;;0.20;;
9643;SDS011;4860;50.900;4.720;2024-03-29T04:54:32;0.30;;;0.30;;
9643;SDS011;4860;50.900;4.720;2024-03-29T04:57:01;0.30;;;0.30;;
9643;SDS011;4860;50.900;4.720;2024-03-29T04:59:31;0.30;;;0.30;;
9643;SDS011;4860;50.900;4.720;2024-03-29T05:01:58;0.30;;;0.30;;
9643;SDS011;4860;50.900;4.720;2024-03-29T05:04:24;0.30;;;0.30;;
9643;SDS011;4860;50.900;4.720;2024-03-29T05:06:51;0.30;;;0.30;;
9643;SDS011;4860;50.900;4.720;2024-03-29T05:09:17;0.30;;;0.30;;
9643;SDS011;4860;50.900;4.720;2024-03-29T05:11:43;0.30;;;0.30;;
9643;SDS011;4860;50.900;4.720;2024-03-29T05:14:09;0.20;;;0.20;;
9643;SDS011;4860;50.900;4.720;2024-03-29T05:16:35;0.20;;;0.20;;
9643;SDS011;4860;50.900;4.720;2024-03-29T05:19:02;0.20;;;0.20;;
9643;SDS011;4860;50.900;4.720;2024-03-29T05:21:28;0.22;;;0.22;;
9643;SDS011;4860;50.900;4.720;2024-03-29T05:23:54;0.30;;;0.30;;
9643;SDS011;4860;50.900;4.720;2024-03-29T05:26:20;0.30;;;0.30;;
9643;SDS011;4860;50.900;4.720;2024-03-29T05:28:46;0.30;;;0.30;;
9643;SDS011;4860;50.900;4.720;2024-03-29T05:31:13;0.20;;;0.20;;
9643;SDS011;4860;50.900;4.720;2024-03-29T05:33:40;0.30;;;0.30;;
9643;SDS011;4860;50.900;4.720;2024-03-29T05:36:07;0.30;;;0.30;;
9643;SDS011;4860;50.900;4.720;2024-03-29T05:38:35;0.30;;;0.30;;
9643;SDS011;4860;50.900;4.720;2024-03-29T05:41:01;0.25;;;0.25;;
9643;SDS011;4860;50.900;4.720;2024-03-29T05:43:27;0.30;;;0.30;;
9643;SDS011;4860;50.900;4.720;2024-03-29T05:45:54;0.30;;;0.30;;
9643;SDS011;4860;50.900;4.720;2024-03-29T05:48:20;0.30;;;0.30;;
9643;SDS011;4860;50.900;4.720;2024-03-29T05:50:46;0.20;;;0.20;;
9643;SDS011;4860;50.900;4.720;2024-03-29T05:53:12;0.30;;;0.30;;
9643;SDS011;4860;50.900;4.720;2024-03-29T05:55:38;0.20;;;0.20;;
9643;SDS011;4860;50.900;4.720;2024-03-29T05:58:04;0.20;;;0.20;;
9643;SDS011;4860;50.900;4.720;2024-03-29T06:00:31;0.20;;;0.20;;
9643;SDS011;4860;50.900;4.720;2024-03-29T06:03:01;0.30;;;0.30;;
9643;SDS011;4860;50.900;4.720;2024-03-29T06:05:30;0.20;;;0.20;;
9643;SDS011;4860;50.900;4.720;2024-03-29T06:07:56;0.30;;;0.30;;
9643;SDS011;4860;50.900;4.720;2024-03-29T06:10:22;0.30;;;0.30;;
9643;SDS011;4860;50.900;4.720;2024-03-29T06:12:48;0.30;;;0.30;;
9643;SDS011;4860;50.900;4.720;2024-03-29T06:15:14;0.30;;;0.30;;
9643;SDS011;4860;50.900;4.720;2024-03-29T06:17:59;0.28;;;0.28;;
9643;SDS011;4860;50.900;4.720;2024-03-29T06:20:25;0.30;;;0.30;;
9643;SDS011;4860;50.900;4.720;2024-03-29T06:22:51;0.30;;;0.30;;
9643;SDS011;4860;50.900;4.720;2024-03-29T06:25:17;0.30;;;0.30;;
9643;SDS011;4860;50.900;4.720;2024-03-29T06:27:43;0.30;;;0.30;;
9643;SDS011;4860;50.900;4.720;2024-03-29T06:30:12;0.30;;;0.30;;
9643;SDS011;4860;50.900;4.720;2024-03-29T06:32:39;0.30;;;0.30;;
9643;SDS011;4860;50.900;4.720;2024-03-29T06:35:05;0.20;;;0.20;;
9643;SDS011;4860;50.900;4.720;2024-03-29T06:37:31;0.30;;;0.30;;
9643;SDS011;4860;50.900;4.720;2024-03-29T06:39:58;0.30;;;0.30;;
9643;SDS011;4860;50.900;4.720;2024-03-29T06:42:24;0.30;;;0.30;;
9643;SDS011;4860;50.900;4.720;2024-03-29T06:44:50;0.30;;;0.30;;
9643;SDS011;4860;50.900;4.720;2024-03-29T06:47:17;0.22;;;0.22;;
9643;SDS011;4860;50.900;4.720;2024-03-29T06:49:43;0.20;;;0.20;;
9643;SDS011;4860;50.900;4.720;2024-03-29T06:52:10;0.30;;;0.30;;
9643;SDS011;4860;50.900;4.720;2024-03-29T06:54:36;0.30;;;0.30;;
9643;SDS011;4860;50.900;4.720;2024-03-29T06:57:02;0.20;;;0.20;;
9643;SDS011;4860;50.900;4.720;2024-03-29T06:59:28;0.20;;;0.20;;
9643;SDS011;4860;50.900;4.720;2024-03-29T07:01:54;0.20;;;0.20;;
9643;SDS011;4860;50.900;4.720;2024-03-29T07:04:21;0.20;;;0.20;;
9643;SDS011;4860;50.900;4.720;2024-03-29T07:06:48;0.30;;;0.30;;
9643;SDS011;4860;50.900;4.720;2024-03-29T07:09:20;0.30;;;0.30;;
9643;SDS011;4860;50.900;4.720;2024-03-29T07:11:47;0.20;;;0.20;;
9643;SDS011;4860;50.900;4.720;2024-03-29T07:14:14;0.20;;;0.20;;
9643;SDS011;4860;50.900;4.720;2024-03-29T07:16:40;0.20;;;0.20;;
9643;SDS011;4860;50.900;4.720;2024-03-29T07:19:06;0.30;;;0.30;;
9643;SDS011;4860;50.900;4.720;2024-03-29T07:21:32;0.20;;;0.20;;
9643;SDS011;4860;50.900;4.720;2024-03-29T07:23:58;0.20;;;0.20;;
9643;SDS011;4860;50.900;4.720;2024-03-29T07:26:24;0.30;;;0.30;;
9643;SDS011;4860;50.900;4.720;2024-03-29T07:28:50;0.30;;;0.30;;
9643;SDS011;4860;50.900;4.720;2024-03-29T07:31:17;0.20;;;0.20;;
9643;SDS011;4860;50.900;4.720;2024-03-29T07:33:43;0.20;;;0.20;;
9643;SDS011;4860;50.900;4.720;2024-03-29T07:36:09;0.20;;;0.20;;
9643;SDS011;4860;50.900;4.720;2024-03-29T07:38:36;0.20;;;0.20;;
9643;SDS011;4860;50.900;4.720;2024-03-29T07:41:05;0.30;;;0.30;;
9643;SDS011;4860;50.900;4.720;2024-03-29T07:43:37;0.30;;;0.30;;
9643;SDS011;4860;50.900;4.720;2024-03-29T07:46:04;0.20;;;0.20;;
9643;SDS011;4860;50.900;4.720;2024-03-29T07:48:33;0.20;;;0.20;;
9643;SDS011;4860;50.900;4.720;2024-03-29T07:51:00;0.20;;;0.20;;
9643;SDS011;4860;50.900;4.720;2024-03-29T07:53:26;0.20;;;0.20;;
9643;SDS011;4860;50.900;4.720;2024-03-29T07:55:52;0.20;;;0.20;;
9643;SDS011;4860;50.900;4.720;2024-03-29T07:58:18;0.20;;;0.20;;
9643;SDS011;4860;50.900;4.720;2024-03-29T08:00:44;0.20;;;0.20;;
9643;SDS011;4860;50.900;4.720;2024-03-29T08:03:10;0.20;;;0.20;;
9643;SDS011;4860;50.900;4.720;2024-03-29T08:05:36;0.20;;;0.20;;
9643;SDS011;4860;50.900;4.720;2024-03-29T08:08:03;0.20;;;0.20;;
9643;SDS011;4860;50.900;4.720;2024-03-29T08:10:29;0.10;;;0.10;;
9643;SDS011;4860;50.900;4.720;2024-03-29T08:12:56;0.20;;;0.20;;
9643;SDS011;4860;50.900;4.720;2024-03-29T08:15:22;0.20;;;0.20;;
9643;SDS011;4860;50.900;4.720;2024-03-29T08:17:48;0.20;;;0.20;;
9643;SDS011;4860;50.900;4.720;2024-03-29T08:20:15;0.10;;;0.10;;
9643;SDS011;4860;50.900;4.720;2024-03-29T08:22:41;0.30;;;0.30;;
9643;SDS011;4860;50.900;4.720;2024-03-29T08:25:07;0.10;;;0.10;;
9643;SDS011;4860;50.900;4.720;2024-03-29T08:27:33;0.20;;;0.20;;
9643;SDS011;4860;50.900;4.720;2024-03-29T08:30:00;0.17;;;0.17;;
9643;SDS011;4860;50.900;4.720;2024-03-29T08:32:26;0.17;;;0.17;;
9643;SDS011;4860;50.900;4.720;2024-03-29T08:34:52;0.10;;;0.10;;
9643;SDS011;4860;50.900;4.720;2024-03-29T08:37:18;0.20;;;0.20;;
9643;SDS011;4860;50.900;4.720;2024-03-29T08:39:44;0.20;;;0.20;;
9643;SDS011;4860;50.900;4.720;2024-03-29T08:42:10;0.13;;;0.13;;
9643;SDS011;4860;50.900;4.720;2024-03-29T08:44:37;0.20;;;0.20;;
9643;SDS011;4860;50.900;4.720;2024-03-29T08:47:06;0.20;;;0.20;;
9643;SDS011;4860;50.900;4.720;2024-03-29T08:49:33;0.10;;;0.10;;
9643;SDS011;4860;50.900;4.720;2024-03-29T08:51:59;0.20;;;0.20;;
9643;SDS011;4860;50.900;4.720;2024-03-29T08:54:30;0.10;;;0.10;;
9643;SDS011;4860;50.900;4.720;2024-03-29T08:56:56;0.20;;;0.20;;
9643;SDS011;4860;50.900;4.720;2024-03-29T08:59:22;0.10;;;0.10;;
9643;SDS011;4860;50.900;4.720;2024-03-29T09:01:48;0.10;;;0.10;;
9643;SDS011;4860;50.900;4.720;2024-03-29T09:04:15;0.20;;;0.20;;
9643;SDS011;4860;50.900;4.720;2024-03-29T09:06:41;0.20;;;0.20;;
9643;SDS011;4860;50.900;4.720;2024-03-29T09:09:07;0.10;;;0.10;;
9643;SDS011;4860;50.900;4.720;2024-03-29T09:11:34;0.10;;;0.10;;
9643;SDS011;4860;50.900;4.720;2024-03-29T09:14:01;0.17;;;0.17;;
9643;SDS011;4860;50.900;4.720;2024-03-29T09:16:29;0.10;;;0.10;;
9643;SDS011;4860;50.900;4.720;2024-03-29T09:18:55;0.10;;;0.10;;
9643;SDS011;4860;50.900;4.720;2024-03-29T09:21:24;0.10;;;0.10;;
9643;SDS011;4860;50.900;4.720;2024-03-29T09:23:50;0.10;;;0.10;;
9643;SDS011;4860;50.900;4.720;2024-03-29T09:26:18;0.15;;;0.15;;
9643;SDS011;4860;50.900;4.720;2024-03-29T09:28:44;0.10;;;0.10;;
9643;SDS011;4860;50.900;4.720;2024-03-29T09:31:10;0.10;;;0.10;;
9643;SDS011;4860;50.900;4.720;2024-03-29T09:33:36;0.10;;;0.10;;
9643;SDS011;4860;50.900;4.720;2024-03-29T09:36:02;0.20;;;0.20;;
9643;SDS011;4860;50.900;4.720;2024-03-29T09:38:28;0.10;;;0.10;;
9643;SDS011;4860;50.900;4.720;2024-03-29T09:43:24;0.10;;;0.10;;
9643;SDS011;4860;50.900;4.720;2024-03-29T09:45:51;0.10;;;0.10;;
9643;SDS011;4860;50.900;4.720;2024-03-29T09:48:19;0.00;;;0.00;;
9643;SDS011;4860;50.900;4.720;2024-03-29T09:50:47;0.10;;;0.10;;
9643;SDS011;4860;50.900;4.720;2024-03-29T09:53:14;0.05;;;0.05;;
9643;SDS011;4860;50.900;4.720;2024-03-29T09:55:40;0.03;;;0.03;;
9643;SDS011;4860;50.900;4.720;2024-03-29T09:58:06;0.10;;;0.10;;
9643;SDS011;4860;50.900;4.720;2024-03-29T10:00:32;0.10;;;0.10;;
9643;SDS011;4860;50.900;4.720;2024-03-29T10:02:58;0.00;;;0.00;;
9643;SDS011;4860;50.900;4.720;2024-03-29T10:05:28;0.10;;;0.10;;
9643;SDS011;4860;50.900;4.720;2024-03-29T10:07:55;0.10;;;0.10;;
9643;SDS011;4860;50.900;4.720;2024-03-29T10:10:21;0.00;;;0.00;;
9643;SDS011;4860;50.900;4.720;2024-03-29T10:12:47;0.10;;;0.10;;
9643;SDS011;4860;50.900;4.720;2024-03-29T10:15:14;0.10;;;0.10;;
9643;SDS011;4860;50.900;4.720;2024-03-29T10:17:46;0.10;;;0.10;;
9643;SDS011;4860;50.900;4.720;2024-03-29T10:20:17;0.05;;;0.05;;
9643;SDS011;4860;50.900;4.720;2024-03-29T10:22:44;0.10;;;0.10;;
9643;SDS011;4860;50.900;4.720;2024-03-29T10:25:10;0.10;;;0.10;;
9643;SDS011;4860;50.900;4.720;2024-03-29T10:27:36;0.10;;;0.10;;
9643;SDS011;4860;50.900;4.720;2024-03-29T10:30:03;0.10;;;0.10;;
9643;SDS011;4860;50.900;4.720;2024-03-29T10:32:29;0.10;;;0.10;;
9643;SDS011;4860;50.900;4.720;2024-03-29T10:34:55;0.00;;;0.00;;
9643;SDS011;4860;50.900;4.720;2024-03-29T10:37:21;0.10;;;0.10;;
9643;SDS011;4860;50.900;4.720;2024-03-29T10:39:54;0.10;;;0.10;;
9643;SDS011;4860;50.900;4.720;2024-03-29T10:42:22;0.10;;;0.10;;
9643;SDS011;4860;50.900;4.720;2024-03-29T10:44:50;0.10;;;0.10;;
9643;SDS011;4860;50.900;4.720;2024-03-29T10:47:20;0.10;;;0.10;;
9643;SDS011;4860;50.900;4.720;2024-03-29T10:49:49;0.10;;;0.10;;
9643;SDS011;4860;50.900;4.720;2024-03-29T10:52:25;0.10;;;0.10;;
9643;SDS011;4860;50.900;4.720;2024-03-29T10:54:52;0.10;;;0.10;;
9643;SDS011;4860;50.900;4.720;2024-03-29T10:57:23;0.10;;;0.10;;
9643;SDS011;4860;50.900;4.720;2024-03-29T11:02:30;0.10;;;0.10;;
9643;SDS011;4860;50.900;4.720;2024-03-29T11:05:00;0.03;;;0.03;;
9643;SDS011;4860;50.900;4.720;2024-03-29T11:07:31;0.10;;;0.10;;
9643;SDS011;4860;50.900;4.720;2024-03-29T11:09:59;0.00;;;0.00;;
9643;SDS011;4860;50.900;4.720;2024-03-29T11:12:26;0.10;;;0.10;;
9643;SDS011;4860;50.900;4.720;2024-03-29T11:15:02;0.10;;;0.10;;
9643;SDS011;4860;50.900;4.720;2024-03-29T11:17:31;0.10;;;0.10;;
9643;SDS011;4860;50.900;4.720;2024-03-29T11:20:01;0.10;;;0.10;;
9643;SDS011;4860;50.900;4.720;2024-03-29T11:22:29;0.10;;;0.10;;
9643;SDS011;4860;50.900;4.720;2024-03-29T11:24:56;0.10;;;0.10;;
9643;SDS011;4860;50.900;4.720;2024-03-29T11:27:22;0.08;;;0.08;;
9643;SDS011;4860;50.900;4.720;2024-03-29T11:29:49;0.10;;;0.10;;
9643;SDS011;4860;50.900;4.720;2024-03-29T11:32:33;0.10;;;0.10;;
9643;SDS011;4860;50.900;4.720;2024-03-29T11:34:59;0.10;;;0.10;;
9643;SDS011;4860;50.900;4.720;2024-03-29T11:37:29;0.00;;;0.00;;
9643;SDS011;4860;50.900;4.720;2024-03-29T11:39:55;0.00;;;0.00;;
9643;SDS011;4860;50.900;4.720;2024-03-29T11:42:37;0.10;;;0.10;;
9643;SDS011;4860;50.900;4.720;2024-03-29T11:45:04;0.08;;;0.08;;
9643;SDS011;4860;50.900;4.720;2024-03-29T11:47:32;0.10;;;0.10;;
9643;SDS011;4860;50.900;4.720;2024-03-29T11:49:59;0.10;;;0.10;;
9643;SDS011;4860;50.900;4.720;2024-03-29T11:52:26;0.10;;;0.10;;
9643;SDS011;4860;50.900;4.720;2024-03-29T11:54:56;0.10;;;0.10;;
9643;SDS011;4860;50.900;4.720;2024-03-29T11:57:23;0.10;;;0.10;;
9643;SDS011;4860;50.900;4.720;2024-03-29T11:59:50;0.10;;;0.10;;
9643;SDS011;4860;50.900;4.720;2024-03-29T12:02:16;0.00;;;0.00;;
9643;SDS011;4860;50.900;4.720;2024-03-29T12:04:42;0.10;;;0.10;;
9643;SDS011;4860;50.900;4.720;2024-03-29T12:07:08;0.10;;;0.10;;
9643;SDS011;4860;50.900;4.720;2024-03-29T12:09:35;0.10;;;0.10;;
9643;SDS011;4860;50.900;4.720;2024-03-29T12:12:04;0.10;;;0.10;;
9643;SDS011;4860;50.900;4.720;2024-03-29T12:14:33;0.00;;;0.00;;
9643;SDS011;4860;50.900;4.720;2024-03-29T12:17:01;0.10;;;0.10;;
9643;SDS011;4860;50.900;4.720;2024-03-29T12:19:28;0.10;;;0.10;;
9643;SDS011;4860;50.900;4.720;2024-03-29T12:21:56;0.00;;;0.00;;
9643;SDS011;4860;50.900;4.720;2024-03-29T12:24:22;0.10;;;0.10;;
9643;SDS011;4860;50.900;4.720;2024-03-29T12:26:48;0.10;;;0.10;;
9643;SDS011;4860;50.900;4.720;2024-03-29T12:29:15;0.05;;;0.05;;
9643;SDS011;4860;50.900;4.720;2024-03-29T12:31:41;0.10;;;0.10;;
9643;SDS011;4860;50.900;4.720;2024-03-29T12:34:08;0.00;;;0.00;;
9643;SDS011;4860;50.900;4.720;2024-03-29T12:36:34;0.10;;;0.10;;
9643;SDS011;4860;50.900;4.720;2024-03-29T12:39:00;0.10;;;0.10;;
9643;SDS011;4860;50.900;4.720;2024-03-29T12:41:31;0.10;;;0.10;;
9643;SDS011;4860;50.900;4.720;2024-03-29T12:43:57;0.10;;;0.10;;
9643;SDS011;4860;50.900;4.720;2024-03-29T12:46:24;0.00;;;0.00;;
9643;SDS011;4860;50.900;4.720;2024-03-29T12:48:59;0.10;;;0.10;;
9643;SDS011;4860;50.900;4.720;2024-03-29T12:51:26;0.10;;;0.10;;
9643;SDS011;4860;50.900;4.720;2024-03-29T12:53:54;0.10;;;0.10;;
9643;SDS011;4860;50.900;4.720;2024-03-29T12:56:20;0.10;;;0.10;;
9643;SDS011;4860;50.900;4.720;2024-03-29T12:58:46;0.10;;;0.10;;
9643;SDS011;4860;50.900;4.720;2024-03-29T13:01:13;0.10;;;0.10;;
9643;SDS011;4860;50.900;4.720;2024-03-29T13:03:39;0.08;;;0.08;;
9643;SDS011;4860;50.900;4.720;2024-03-29T13:06:07;0.00;;;0.00;;
9643;SDS011;4860;50.900;4.720;2024-03-29T13:08:33;0.00;;;0.00;;
9643;SDS011;4860;50.900;4.720;2024-03-29T13:11:00;0.00;;;0.00;;
9643;SDS011;4860;50.900;4.720;2024-03-29T13:13:27;0.10;;;0.10;;
9643;SDS011;4860;50.900;4.720;2024-03-29T13:15:53;0.10;;;0.10;;
9643;SDS011;4860;50.900;4.720;2024-03-29T13:18:19;0.10;;;0.10;;
9643;SDS011;4860;50.900;4.720;2024-03-29T13:20:46;0.10;;;0.10;;
9643;SDS011;4860;50.900;4.720;2024-03-29T13:23:12;0.10;;;0.10;;
9643;SDS011;4860;50.900;4.720;2024-03-29T13:25:39;0.10;;;0.10;;
9643;SDS011;4860;50.900;4.720;2024-03-29T13:28:05;0.10;;;0.10;;
9643;SDS011;4860;50.900;4.720;2024-03-29T13:30:35;0.00;;;0.00;;
9643;SDS011;4860;50.900;4.720;2024-03-29T13:33:08;0.10;;;0.10;;
9643;SDS011;4860;50.900;4.720;2024-03-29T13:35:35;0.10;;;0.10;;
9643;SDS011;4860;50.900;4.720;2024-03-29T13:38:01;0.10;;;0.10;;
9643;SDS011;4860;50.900;4.720;2024-03-29T13:40:27;0.10;;;0.10;;
9643;SDS011;4860;50.900;4.720;2024-03-29T13:42:54;0.00;;;0.00;;
9643;SDS011;4860;50.900;4.720;2024-03-29T13:45:20;0.10;;;0.10;;
9643;SDS011;4860;50.900;4.720;2024-03-29T13:47:46;0.10;;;0.10;;
9643;SDS011;4860;50.900;4.720;2024-03-29T13:50:12;0.10;;;0.10;;
9643;SDS011;4860;50.900;4.720;2024-03-29T13:52:40;0.10;;;0.10;;
9643;SDS011;4860;50.900;4.720;2024-03-29T13:55:07;0.10;;;0.10;;
9643;SDS011;4860;50.900;4.720;2024-03-29T13:57:33;0.10;;;0.10;;
9643;SDS011;4860;50.900;4.720;2024-03-29T13:59:59;0.00;;;0.00;;
9643;SDS011;4860;50.900;4.720;2024-03-29T14:02:26;0.10;;;0.10;;
9643;SDS011;4860;50.900;4.720;2024-03-29T14:04:53;0.10;;;0.10;;
9643;SDS011;4860;50.900;4.720;2024-03-29T14:07:19;0.00;;;0.00;;
9643;SDS011;4860;50.900;4.720;2024-03-29T14:09:45;0.10;;;0.10;;
9643;SDS011;4860;50.900;4.720;2024-03-29T14:12:12;0.10;;;0.10;;
9643;SDS011;4860;50.900;4.720;2024-03-29T14:14:39;0.10;;;0.10;;
9643;SDS011;4860;50.900;4.720;2024-03-29T14:17:06;0.10;;;0.10;;
9643;SDS011;4860;50.900;4.720;2024-03-29T14:19:34;0.10;;;0.10;;
9643;SDS011;4860;50.900;4.720;2024-03-29T14:22:00;0.10;;;0.10;;
9643;SDS011;4860;50.900;4.720;2024-03-29T14:24:26;0.10;;;0.10;;
9643;SDS011;4860;50.900;4.720;2024-03-29T14:26:55;0.10;;;0.10;;
9643;SDS011;4860;50.900;4.720;2024-03-29T14:29:21;0.10;;;0.10;;
9643;SDS011;4860;50.900;4.720;2024-03-29T14:31:48;0.10;;;0.10;;
9643;SDS011;4860;50.900;4.720;2024-03-29T14:34:14;0.10;;;0.10;;
9643;SDS011;4860;50.900;4.720;2024-03-29T14:36:40;0.10;;;0.10;;
9643;SDS011;4860;50.900;4.720;2024-03-29T14:39:06;0.10;;;0.10;;
9643;SDS011;4860;50.900;4.720;2024-03-29T14:41:32;0.10;;;0.10;;
9643;SDS011;4860;50.900;4.720;2024-03-29T14:44:01;0.10;;;0.10;;
9643;SDS011;4860;50.900;4.720;2024-03-29T14:46:28;0.10;;;0.10;;
9643;SDS011;4860;50.900;4.720;2024-03-29T14:48:54;0.00;;;0.00;;
9643;SDS011;4860;50.900;4.720;2024-03-29T14:51:20;0.10;;;0.10;;
9643;SDS011;4860;50.900;4.720;2024-03-29T14:53:46;0.10;;;0.10;;
9643;SDS011;4860;50.900;4.720;2024-03-29T14:56:18;0.03;;;0.03;;
9643;SDS011;4860;50.900;4.720;2024-03-29T14:58:44;0.10;;;0.10;;
9643;SDS011;4860;50.900;4.720;2024-03-29T15:01:12;0.10;;;0.10;;
9643;SDS011;4860;50.900;4.720;2024-03-29T15:03:38;0.10;;;0.10;;
9643;SDS011;4860;50.900;4.720;2024-03-29T15:06:04;0.10;;;0.10;;
9643;SDS011;4860;50.900;4.720;2024-03-29T15:08:30;0.10;;;0.10;;
9643;SDS011;4860;50.900;4.720;2024-03-29T15:11:00;0.10;;;0.10;;
9643;SDS011;4860;50.900;4.720;2024-03-29T15:13:26;0.00;;;0.00;;
9643;SDS011;4860;50.900;4.720;2024-03-29T15:15:57;0.00;;;0.00;;
9643;SDS011;4860;50.900;4.720;2024-03-29T15:18:23;0.03;;;0.03;;